createdAt,value
2023-04-10T00:00:13.359Z,24.90
2023-04-10T00:02:41.249Z,24.30
2023-04-10T00:05:09.365Z,26.35
2023-04-10T00:07:36.985Z,23.13
2023-04-10T00:10:04.888Z,29.40
2023-04-10T00:12:32.510Z,23.42
2023-04-10T00:15:00.275Z,27.70
2023-04-10T00:17:27.833Z,26.75
2023-04-10T00:19:55.727Z,25.48
2023-04-10T00:22:23.268Z,25.50
2023-04-10T00:24:51.015Z,24.90
2023-04-10T00:27:18.528Z,29.67
2023-04-10T00:29:46.161Z,24.38
2023-04-10T00:32:14.014Z,23.95
2023-04-10T00:34:41.635Z,25.42
2023-04-10T00:37:09.319Z,23.40
2023-04-10T00:39:36.904Z,25.60
2023-04-10T00:42:09.363Z,25.02
2023-04-10T00:44:38.075Z,27.50
2023-04-10T00:47:06.461Z,26.98
2023-04-10T00:49:34.766Z,24.00
2023-04-10T00:52:02.384Z,27.80
2023-04-10T00:54:31.554Z,22.52
2023-04-10T00:56:59.784Z,28.63
2023-04-10T00:59:27.598Z,25.25
2023-04-10T01:01:55.821Z,27.08
2023-04-10T01:04:26.671Z,26.00
2023-04-10T01:07:06.396Z,29.97
2023-04-10T01:10:03.341Z,29.13
2023-04-10T01:12:53.669Z,30.35
2023-04-10T01:15:28.550Z,24.90
2023-04-10T01:18:09.911Z,31.02
2023-04-10T01:20:42.221Z,27.65
2023-04-10T01:23:47.028Z,27.92
2023-04-10T01:26:17.512Z,31.95
2023-04-10T01:29:00.310Z,29.38
2023-04-10T01:32:02.628Z,31.13
2023-04-10T01:37:07.512Z,35.58
2023-04-10T01:39:39.343Z,31.90
2023-04-10T01:42:08.967Z,32.72
2023-04-10T01:44:43.005Z,36.10
2023-04-10T01:47:14.214Z,34.08
2023-04-10T01:49:46.734Z,41.42
2023-04-10T01:52:15.652Z,34.42
2023-04-10T01:54:49.071Z,38.58
2023-04-10T01:57:23.621Z,37.95
2023-04-10T01:59:57.382Z,38.00
2023-04-10T02:02:25.850Z,39.10
2023-04-10T02:04:53.543Z,41.78
2023-04-10T02:07:29.934Z,37.13
2023-04-10T02:10:04.670Z,43.97
2023-04-10T02:12:42.184Z,44.30
2023-04-10T02:15:11.957Z,41.08
2023-04-10T02:17:40.630Z,40.47
2023-04-10T02:20:10.751Z,44.42
2023-04-10T02:22:41.144Z,46.45
2023-04-10T02:25:09.209Z,42.00
2023-04-10T02:27:37.911Z,47.25
2023-04-10T02:30:06.462Z,47.42
2023-04-10T02:32:36.981Z,44.60
2023-04-10T02:35:08.806Z,41.75
2023-04-10T02:37:38.198Z,46.15
2023-04-10T02:40:06.942Z,50.30
2023-04-10T02:42:43.601Z,41.53
2023-04-10T02:45:12.015Z,46.30
2023-04-10T02:47:43.411Z,46.70
2023-04-10T02:50:12.112Z,42.58
2023-04-10T02:52:43.252Z,42.50
2023-04-10T02:55:11.395Z,42.20
2023-04-10T02:57:42.605Z,47.60
2023-04-10T03:00:11.077Z,44.22
2023-04-10T03:03:10.865Z,43.20
2023-04-10T03:05:51.889Z,41.33
2023-04-10T03:08:25.813Z,39.20
2023-04-10T03:10:53.524Z,42.00
2023-04-10T03:13:21.213Z,43.15
2023-04-10T03:15:49.134Z,42.63
2023-04-10T03:18:16.739Z,46.50
2023-04-10T03:20:47.226Z,48.75
2023-04-10T03:23:14.843Z,45.70
2023-04-10T03:25:43.370Z,46.00
2023-04-10T03:28:11.902Z,42.03
2023-04-10T03:30:39.593Z,44.28
2023-04-10T03:33:07.143Z,43.05
2023-04-10T03:35:34.736Z,42.33
2023-04-10T03:38:02.294Z,42.47
2023-04-10T03:40:29.975Z,42.90
2023-04-10T03:42:57.556Z,41.30
2023-04-10T03:45:26.377Z,45.30
2023-04-10T03:47:53.940Z,43.03
2023-04-10T03:50:22.175Z,37.33
2023-04-10T03:52:57.920Z,37.03
2023-04-10T03:55:26.908Z,38.38
2023-04-10T03:57:56.026Z,37.55
2023-04-10T04:00:26.466Z,34.75
2023-04-10T04:03:08.394Z,38.65
2023-04-10T04:06:08.553Z,36.60
2023-04-10T04:08:43.352Z,36.88
2023-04-10T04:11:19.011Z,33.45
2023-04-10T04:14:02.419Z,34.10
2023-04-10T04:16:43.135Z,35.50
2023-04-10T04:19:29.195Z,32.83
2023-04-10T04:22:14.341Z,35.28
2023-04-10T04:25:10.744Z,35.95
2023-04-10T04:28:02.265Z,31.30
2023-04-10T04:30:48.612Z,33.75
2023-04-10T04:33:39.360Z,33.40
2023-04-10T04:36:27.667Z,31.83
2023-04-10T04:39:04.679Z,32.42
2023-04-10T04:41:52.501Z,32.80
2023-04-10T04:44:38.377Z,29.85
2023-04-10T04:47:30.579Z,32.75
2023-04-10T04:50:36.821Z,31.17
2023-04-10T04:53:05.475Z,29.95
2023-04-10T04:55:53.489Z,29.27
2023-04-10T04:58:38.263Z,30.65
2023-04-10T05:01:33.092Z,29.50
2023-04-10T05:04:20.707Z,29.40
2023-04-10T05:07:11.195Z,30.33
2023-04-10T05:09:47.913Z,24.33
2023-04-10T05:12:43.224Z,24.58
2023-04-10T05:15:37.310Z,28.67
2023-04-10T05:18:24.883Z,30.10
2023-04-10T05:21:12.742Z,26.13
2023-04-10T05:23:51.247Z,28.15
2023-04-10T05:26:50.976Z,28.23
2023-04-10T05:29:38.778Z,26.65
2023-04-10T05:32:32.514Z,23.00
2023-04-10T05:35:23.431Z,24.58
2023-04-10T05:38:09.560Z,21.90
2023-04-10T05:40:57.464Z,24.15
2023-04-10T05:43:38.680Z,21.92
2023-04-10T05:46:13.538Z,18.98
2023-04-10T05:49:04.240Z,21.45
2023-04-10T05:51:54.924Z,20.88
2023-04-10T05:54:40.747Z,18.83
2023-04-10T05:57:30.574Z,19.42
2023-04-10T06:00:18.049Z,15.20
2023-04-10T06:03:08.632Z,15.18
2023-04-10T06:05:46.768Z,18.60
2023-04-10T06:08:14.429Z,16.25
2023-04-10T06:10:42.411Z,16.52
2023-04-10T06:13:12.066Z,15.50
2023-04-10T06:15:39.645Z,19.77
2023-04-10T06:18:07.830Z,14.35
2023-04-10T06:20:38.224Z,17.42
2023-04-10T06:23:06.196Z,15.95
2023-04-10T06:25:34.461Z,15.15
2023-04-10T06:28:02.116Z,14.55
2023-04-10T06:30:31.116Z,14.23
2023-04-10T06:32:59.212Z,13.57
2023-04-10T06:35:27.416Z,13.48
2023-04-10T06:37:55.164Z,12.70
2023-04-10T06:40:22.808Z,13.85
2023-04-10T06:42:50.371Z,12.98
2023-04-10T06:45:30.481Z,14.38
2023-04-10T06:47:58.140Z,13.35
2023-04-10T06:50:26.302Z,12.57
2023-04-10T06:52:56.006Z,13.25
2023-04-10T06:55:23.523Z,10.68
2023-04-10T06:57:51.052Z,11.38
2023-04-10T07:00:19.554Z,11.98
2023-04-10T07:02:47.363Z,11.43
2023-04-10T07:05:16.089Z,13.07
2023-04-10T07:07:43.953Z,11.63
2023-04-10T07:10:11.597Z,13.98
2023-04-10T07:12:39.147Z,11.82
2023-04-10T07:15:08.135Z,13.82
2023-04-10T07:17:35.871Z,9.98
2023-04-10T07:20:04.121Z,13.20
2023-04-10T07:22:32.805Z,12.48
2023-04-10T07:25:00.607Z,10.10
2023-04-10T07:27:28.336Z,10.20
2023-04-10T07:29:57.011Z,11.23
2023-04-10T07:32:24.943Z,10.38
2023-04-10T07:34:52.736Z,9.82
2023-04-10T07:37:20.470Z,9.18
2023-04-10T07:39:48.011Z,9.40
2023-04-10T07:42:15.684Z,10.70
2023-04-10T07:44:43.366Z,9.10
2023-04-10T07:47:11.480Z,9.80
2023-04-10T07:49:39.070Z,11.38
2023-04-10T07:52:06.831Z,10.30
2023-04-10T07:54:35.047Z,9.43
2023-04-10T07:57:02.942Z,8.75
2023-04-10T07:59:30.522Z,8.38
2023-04-10T08:01:58.288Z,8.23
2023-04-10T08:04:26.499Z,9.02
2023-04-10T08:06:54.241Z,7.28
2023-04-10T08:09:22.099Z,8.93
2023-04-10T08:11:49.798Z,8.02
2023-04-10T08:14:18.015Z,7.72
2023-04-10T08:16:46.305Z,7.07
2023-04-10T08:19:13.954Z,7.43
2023-04-10T08:21:41.614Z,7.00
2023-04-10T08:24:09.302Z,5.85
2023-04-10T08:26:37.073Z,4.72
2023-04-10T08:29:04.808Z,7.63
2023-04-10T08:31:32.823Z,6.47
2023-04-10T08:34:00.718Z,4.82
2023-04-10T08:36:28.968Z,6.03
2023-04-10T08:38:56.741Z,4.45
2023-04-10T08:41:24.495Z,9.60
2023-04-10T08:43:52.079Z,7.82
2023-04-10T08:46:20.346Z,4.43
2023-04-10T08:48:59.146Z,5.82
2023-04-10T08:51:32.703Z,5.40
2023-04-10T08:54:07.271Z,5.82
2023-04-10T08:56:38.005Z,7.95
2023-04-10T08:59:05.862Z,7.13
2023-04-10T09:01:34.984Z,7.22
2023-04-10T09:04:02.897Z,6.93
2023-04-10T09:06:31.616Z,8.20
2023-04-10T09:09:02.341Z,7.25
2023-04-10T09:11:52.382Z,7.45
2023-04-10T09:14:24.479Z,7.25
2023-04-10T09:16:53.666Z,8.77
2023-04-10T09:19:30.866Z,11.45
2023-04-10T09:21:58.697Z,8.40
2023-04-10T09:24:27.410Z,12.55
2023-04-10T09:26:55.453Z,10.18
2023-04-10T09:29:23.093Z,7.85
2023-04-10T09:31:51.402Z,6.47
2023-04-10T09:34:23.750Z,9.98
2023-04-10T09:36:56.772Z,12.00
2023-04-10T09:39:43.093Z,7.90
2023-04-10T09:42:15.114Z,6.50
2023-04-10T09:44:42.984Z,8.85
2023-04-10T09:47:19.621Z,7.78
2023-04-10T09:49:54.212Z,6.85
2023-04-10T09:52:30.530Z,9.27
2023-04-10T09:55:08.571Z,7.78
2023-04-10T09:57:36.620Z,7.50
2023-04-10T10:00:07.062Z,7.55
2023-04-10T10:02:39.077Z,10.98
2023-04-10T10:05:08.177Z,9.23
2023-04-10T10:07:36.785Z,8.52
2023-04-10T10:10:06.359Z,12.02
2023-04-10T10:13:03.497Z,8.68
2023-04-10T10:15:50.145Z,6.90
2023-04-10T10:18:44.006Z,11.32
2023-04-10T10:21:13.694Z,10.55
2023-04-10T10:23:44.227Z,7.40
2023-04-10T10:26:13.564Z,10.45
2023-04-10T10:28:42.323Z,13.52
2023-04-10T10:31:10.297Z,9.90
2023-04-10T10:33:38.461Z,10.15
2023-04-10T10:36:07.130Z,8.02
2023-04-10T10:38:37.924Z,8.57
2023-04-10T10:41:23.807Z,8.35
2023-04-10T10:44:19.478Z,12.02
2023-04-10T10:47:04.605Z,11.75
2023-04-10T10:49:56.285Z,9.45
2023-04-10T10:52:46.804Z,7.97
2023-04-10T10:55:35.189Z,10.13
2023-04-10T10:58:07.932Z,13.73
2023-04-10T11:00:50.795Z,9.98
2023-04-10T11:03:18.751Z,11.57
2023-04-10T11:06:03.055Z,11.05
2023-04-10T11:08:33.927Z,14.05
2023-04-10T11:11:03.868Z,8.57
2023-04-10T11:13:53.543Z,5.63
2023-04-10T11:16:21.824Z,4.75
2023-04-10T11:18:56.115Z,7.35
2023-04-10T11:21:31.462Z,6.10
2023-04-10T11:23:59.379Z,4.20
2023-04-10T11:26:40.410Z,9.60
2023-04-10T11:29:17.280Z,5.88
2023-04-10T11:31:46.265Z,3.10
2023-04-10T11:34:15.715Z,4.93
2023-04-10T11:36:44.736Z,7.72
2023-04-10T11:39:14.159Z,7.32
2023-04-10T11:41:52.683Z,6.00
2023-04-10T11:44:28.202Z,5.85
2023-04-10T11:46:55.856Z,4.18
2023-04-10T11:49:26.527Z,4.53
2023-04-10T11:51:54.600Z,1.90
2023-04-10T11:54:24.433Z,3.30
2023-04-10T11:56:59.324Z,2.25
2023-04-10T11:59:27.968Z,2.13
2023-04-10T12:02:16.287Z,1.85
2023-04-10T12:04:44.881Z,1.33
2023-04-10T12:07:12.639Z,1.88
2023-04-10T12:09:40.695Z,0.93
2023-04-10T12:12:08.550Z,2.38
2023-04-10T12:14:40.810Z,1.70
2023-04-10T12:17:13.073Z,1.77
2023-04-10T12:19:40.861Z,4.82
2023-04-10T12:22:11.958Z,2.15
2023-04-10T12:24:44.450Z,2.65
2023-04-10T12:27:28.675Z,1.25
2023-04-10T12:29:58.596Z,3.28
2023-04-10T12:32:27.700Z,2.85
2023-04-10T12:35:01.214Z,2.85
2023-04-10T12:37:48.084Z,2.10
2023-04-10T12:40:15.716Z,3.47
2023-04-10T12:42:43.879Z,2.40
2023-04-10T12:45:14.083Z,1.10
2023-04-10T12:47:52.008Z,2.20
2023-04-10T12:50:24.294Z,5.07
2023-04-10T12:53:07.661Z,2.08
2023-04-10T12:55:35.349Z,1.33
2023-04-10T12:58:20.297Z,1.98
2023-04-10T13:00:49.178Z,2.30
2023-04-10T13:03:17.111Z,7.03
2023-04-10T13:05:45.014Z,2.78
2023-04-10T13:08:12.639Z,3.75
2023-04-10T13:10:42.225Z,1.80
2023-04-10T13:13:13.316Z,2.72
2023-04-10T13:15:41.089Z,1.92
2023-04-10T13:18:10.449Z,1.85
2023-04-10T13:20:39.873Z,3.03
2023-04-10T13:23:08.258Z,3.03
2023-04-10T13:25:39.835Z,4.18
2023-04-10T13:28:11.477Z,4.80
2023-04-10T13:33:09.568Z,6.03
2023-04-10T13:35:37.389Z,3.70
2023-04-10T13:38:05.048Z,3.70
2023-04-10T13:40:33.325Z,3.97
2023-04-10T13:43:00.931Z,2.88
2023-04-10T13:45:28.513Z,3.83
2023-04-10T13:47:56.128Z,3.92
2023-04-10T13:50:23.828Z,5.15
2023-04-10T13:52:53.021Z,3.10
2023-04-10T13:55:21.324Z,2.53
2023-04-10T13:57:48.977Z,3.70
2023-04-10T14:00:17.543Z,3.30
2023-04-10T14:02:45.673Z,3.05
2023-04-10T14:05:13.370Z,4.32
2023-04-10T14:07:40.972Z,4.65
2023-04-10T14:10:09.128Z,3.65
2023-04-10T14:12:37.793Z,3.72
2023-04-10T14:15:06.341Z,3.22
2023-04-10T14:17:34.231Z,4.25
2023-04-10T14:20:01.977Z,3.60
2023-04-10T14:22:31.756Z,2.88
2023-04-10T14:25:11.866Z,4.65
2023-04-10T14:27:40.501Z,4.85
2023-04-10T14:30:09.211Z,3.40
2023-04-10T14:32:38.042Z,5.13
2023-04-10T14:35:06.217Z,3.30
2023-04-10T14:37:33.950Z,5.05
2023-04-10T14:40:01.596Z,5.50
2023-04-10T14:42:29.205Z,2.63
2023-04-10T14:44:58.919Z,3.53
2023-04-10T14:47:26.705Z,5.30
2023-04-10T14:49:54.314Z,1.90
2023-04-10T14:52:21.955Z,4.57
2023-04-10T14:54:49.550Z,2.25
2023-04-10T14:57:17.359Z,4.63
2023-04-10T14:59:44.923Z,6.72
2023-04-10T15:02:12.518Z,4.43
2023-04-10T15:04:40.393Z,5.38
2023-04-10T15:07:08.065Z,4.20
2023-04-10T15:09:35.654Z,4.20
2023-04-10T15:12:03.373Z,4.25
2023-04-10T15:14:31.107Z,3.72
2023-04-10T15:16:58.908Z,4.20
2023-04-10T15:19:26.755Z,5.78
2023-04-10T15:21:55.232Z,4.80
2023-04-10T15:24:22.747Z,7.47
2023-04-10T15:26:50.410Z,2.78
2023-04-10T15:29:18.066Z,7.00
2023-04-10T15:31:45.845Z,3.05
2023-04-10T15:34:13.463Z,5.40
2023-04-10T15:36:41.450Z,2.35
2023-04-10T15:39:09.963Z,1.80
2023-04-10T15:41:38.161Z,2.20
2023-04-10T15:44:06.165Z,3.38
2023-04-10T15:46:34.596Z,1.27
2023-04-10T15:49:02.800Z,1.65
2023-04-10T15:51:31.554Z,1.80
2023-04-10T15:53:59.121Z,6.20
2023-04-10T15:56:26.883Z,4.07
2023-04-10T15:58:54.378Z,4.55
2023-04-10T16:01:22.122Z,4.80
2023-04-10T16:03:49.902Z,6.85
2023-04-10T16:06:17.817Z,5.57
2023-04-10T16:08:45.343Z,5.10
2023-04-10T16:11:12.940Z,4.53
2023-04-10T16:13:52.356Z,3.97
2023-04-10T16:16:20.163Z,4.53
2023-04-10T16:18:47.786Z,4.95
2023-04-10T16:21:15.444Z,4.88
2023-04-10T16:23:43.090Z,5.00
2023-04-10T16:26:10.792Z,2.50
2023-04-10T16:28:38.293Z,6.32
2023-04-10T16:31:06.312Z,4.32
2023-04-10T16:33:34.138Z,4.97
2023-04-10T16:36:04.708Z,3.88
2023-04-10T16:38:34.654Z,5.25
2023-04-10T16:41:05.992Z,9.18
2023-04-10T16:43:33.542Z,3.17
2023-04-10T16:46:01.502Z,3.65
2023-04-10T16:48:29.012Z,2.05
2023-04-10T16:50:58.816Z,3.38
2023-04-10T16:53:26.502Z,3.05
2023-04-10T16:56:02.955Z,4.75
2023-04-10T16:58:33.962Z,1.60
2023-04-10T17:01:13.278Z,3.25
2023-04-10T17:03:41.011Z,4.15
2023-04-10T17:06:08.539Z,4.40
2023-04-10T17:08:36.227Z,2.38
2023-04-10T17:11:04.705Z,1.80
2023-04-10T17:13:32.283Z,5.15
2023-04-10T17:15:59.800Z,4.82
2023-04-10T17:18:27.455Z,5.15
2023-04-10T17:20:55.005Z,6.47
2023-04-10T17:23:22.639Z,5.28
2023-04-10T17:25:50.454Z,3.05
2023-04-10T17:28:18.182Z,6.20
2023-04-10T17:30:46.272Z,4.00
2023-04-10T17:33:13.912Z,2.67
2023-04-10T17:35:42.259Z,5.13
2023-04-10T17:38:09.844Z,4.05
2023-04-10T17:40:39.817Z,4.70
2023-04-10T17:43:07.432Z,2.17
2023-04-10T17:45:38.587Z,1.88
2023-04-10T17:48:07.083Z,4.50
2023-04-10T17:50:35.241Z,2.65
2023-04-10T17:53:03.136Z,3.13
2023-04-10T17:55:38.343Z,3.55
2023-04-10T17:58:06.290Z,3.92
2023-04-10T18:00:34.405Z,7.22
2023-04-10T18:03:02.109Z,4.30
2023-04-10T18:05:30.658Z,5.05
2023-04-10T18:07:58.194Z,6.93
2023-04-10T18:10:25.846Z,5.00
2023-04-10T18:12:56.726Z,5.13
2023-04-10T18:15:25.304Z,9.73
2023-04-10T18:17:53.119Z,3.78
2023-04-10T18:20:21.108Z,5.45
2023-04-10T18:22:48.878Z,3.72
2023-04-10T18:25:17.162Z,3.85
2023-04-10T18:27:55.300Z,3.75
2023-04-10T18:30:33.323Z,3.67
2023-04-10T18:33:02.610Z,2.67
2023-04-10T18:35:32.176Z,4.53
2023-04-10T18:38:00.002Z,3.33
2023-04-10T18:40:28.060Z,0.73
2023-04-10T18:42:55.645Z,0.70
2023-04-10T18:45:23.331Z,3.00
2023-04-10T18:47:51.011Z,2.80
2023-04-10T18:50:19.231Z,2.75
2023-04-10T18:52:47.100Z,2.45
2023-04-10T18:55:14.893Z,0.85
2023-04-10T18:57:42.784Z,1.75
2023-04-10T19:00:11.921Z,1.73
2023-04-10T19:02:40.605Z,2.72
2023-04-10T19:05:09.515Z,1.73
2023-04-10T19:07:37.348Z,1.98
2023-04-10T19:10:05.704Z,1.95
2023-04-10T19:12:38.892Z,1.77
2023-04-10T19:15:08.416Z,0.98
2023-04-10T19:17:36.355Z,1.88
2023-04-10T19:20:04.528Z,3.50
2023-04-10T19:22:33.038Z,4.45
2023-04-10T19:25:01.101Z,1.15
2023-04-10T19:27:28.903Z,3.15
2023-04-10T19:29:56.724Z,2.38
2023-04-10T19:32:25.131Z,2.10
2023-04-10T19:34:53.544Z,2.70
2023-04-10T19:37:21.575Z,3.95
2023-04-10T19:39:49.475Z,5.57
2023-04-10T19:42:17.435Z,5.68
2023-04-10T19:44:45.200Z,2.60
2023-04-10T19:47:13.442Z,3.40
2023-04-10T19:49:41.584Z,3.70
2023-04-10T19:52:09.603Z,4.97
2023-04-10T19:54:37.476Z,4.30
2023-04-10T19:57:05.063Z,3.72
2023-04-10T19:59:33.435Z,3.20
2023-04-10T20:02:01.229Z,5.68
2023-04-10T20:04:29.669Z,1.90
2023-04-10T20:06:57.748Z,6.70
2023-04-10T20:09:25.992Z,5.60
2023-04-10T20:11:53.699Z,6.60
2023-04-10T20:14:21.574Z,10.00
2023-04-10T20:16:49.564Z,5.63
2023-04-10T20:19:17.622Z,7.15
2023-04-10T20:21:45.390Z,5.72
2023-04-10T20:24:13.438Z,5.55
2023-04-10T20:26:41.267Z,4.18
2023-04-10T20:29:09.434Z,4.25
2023-04-10T20:31:37.465Z,4.95
2023-04-10T20:34:05.320Z,4.65
2023-04-10T20:36:34.529Z,4.55
2023-04-10T20:39:02.453Z,2.35
2023-04-10T20:41:30.308Z,3.70
2023-04-10T20:43:58.594Z,6.65
2023-04-10T20:46:27.463Z,3.83
2023-04-10T20:48:56.268Z,4.90
2023-04-10T20:51:24.058Z,5.28
2023-04-10T20:53:51.818Z,4.18
2023-04-10T20:56:21.142Z,3.30
2023-04-10T20:58:50.661Z,3.37
2023-04-10T21:01:18.156Z,5.15
2023-04-10T21:03:46.051Z,3.15
2023-04-10T21:06:15.388Z,2.10
2023-04-10T21:08:43.243Z,4.57
2023-04-10T21:11:10.878Z,2.67
2023-04-10T21:13:38.753Z,2.25
2023-04-10T21:16:06.755Z,3.63
2023-04-10T21:18:34.299Z,1.58
2023-04-10T21:21:01.822Z,2.85
2023-04-10T21:23:29.347Z,3.00
2023-04-10T21:25:56.895Z,4.95
2023-04-10T21:28:24.653Z,4.20
2023-04-10T21:30:52.200Z,3.28
2023-04-10T21:33:19.758Z,3.35
2023-04-10T21:35:48.218Z,3.47
2023-04-10T21:38:15.991Z,2.30
2023-04-10T21:40:54.071Z,2.22
2023-04-10T21:43:22.213Z,1.05
2023-04-10T21:45:49.816Z,1.60
2023-04-10T21:48:19.604Z,4.10
2023-04-10T21:50:47.574Z,3.90
2023-04-10T21:53:15.441Z,2.45
2023-04-10T21:55:43.092Z,3.15
2023-04-10T21:58:10.731Z,2.42
2023-04-10T22:00:38.367Z,2.65
2023-04-10T22:03:07.577Z,4.57
2023-04-10T22:05:35.662Z,5.03
2023-04-10T22:08:03.279Z,2.58
2023-04-10T22:10:30.848Z,3.35
2023-04-10T22:12:58.375Z,2.78
2023-04-10T22:15:25.979Z,5.20
2023-04-10T22:17:53.754Z,3.90
2023-04-10T22:20:21.388Z,4.18
2023-04-10T22:22:49.087Z,1.88
2023-04-10T22:25:16.846Z,2.08
2023-04-10T22:27:44.386Z,3.33
2023-04-10T22:30:12.363Z,4.75
2023-04-10T22:32:40.064Z,3.17
2023-04-10T22:35:08.182Z,6.88
2023-04-10T22:37:35.858Z,3.42
2023-04-10T22:40:04.806Z,5.95
2023-04-10T22:42:32.472Z,8.65
2023-04-10T22:45:00.229Z,5.43
2023-04-10T22:47:27.812Z,6.15
2023-04-10T22:49:55.371Z,8.52
2023-04-10T22:52:23.123Z,8.15
2023-04-10T22:54:50.826Z,8.07
2023-04-10T22:57:18.348Z,4.85
2023-04-10T22:59:45.811Z,7.40
2023-04-10T23:02:13.460Z,5.50
2023-04-10T23:04:41.170Z,8.55
2023-04-10T23:07:08.947Z,5.32
2023-04-10T23:09:36.568Z,4.13
2023-04-10T23:12:04.283Z,3.97
2023-04-10T23:14:35.733Z,2.72
2023-04-10T23:17:03.322Z,9.00
2023-04-10T23:19:31.156Z,6.82
2023-04-10T23:21:58.671Z,3.50
2023-04-10T23:24:26.437Z,6.47
2023-04-10T23:26:54.059Z,5.35
2023-04-10T23:29:21.666Z,6.47
2023-04-10T23:31:49.197Z,5.28
2023-04-10T23:34:16.737Z,6.68
2023-04-10T23:36:44.650Z,7.00
2023-04-10T23:39:12.697Z,5.68
2023-04-10T23:41:40.317Z,4.80
2023-04-10T23:44:07.818Z,5.13
2023-04-10T23:46:35.702Z,5.57
2023-04-10T23:49:03.526Z,6.30
2023-04-10T23:51:31.999Z,11.38
2023-04-10T23:53:59.548Z,3.97
2023-04-10T23:56:29.291Z,4.72
2023-04-10T23:58:57.054Z,10.73
